Sheridan, Indiana
Current Conditions -  °F | °C
As of 8:35 PM on Thursday 27 Nov 2014 (Local Time) from KTYQ Reporting Station
Light Snow Light Snow  
Wind Chill: 18°   Ceiling: 1000
Heat Index: 26°   Visibility: 7mi
Dew Point: 21°   Wind: 8mph
Humidity: 81%   Direction: 280°W
Pressure: 30.4"   Gusts: NA
Location:  40.14°N, 86.22°W
Report Text: KTYQ 280135Z AUTO 28007KT 7SM -SN BKN010 OVC015 M03/M06 A3040 RMK AO2 T10331061
Loading
Personal Weather Stations






























Interactive Weather Map New forecast layout! Learn more

10-Day Weather Forecast

Advertisements
Track Severe Weather on mobile